Time;durP1;ratioP1;P1;durP2;ratioP2;P2;SDS_P1;SDS_P2;PMS_P1;PMS_P2;Temp;Humidity;BMP_temperature;BMP_pressure;BME280_temperature;BME280_humidity;BME280_pressure;Samples;Min_cycle;Max_cycle;Signal;HPM_P1;HPM_P2
2021/12/10 00:00:56;;;;;;;6.38;2.70;;;;;;;18.63;38.56;99701.19;4928383;28;97013;-57
2021/12/10 00:03:55;;;;;;;6.30;2.67;;;;;;;18.58;38.76;99703.38;4927964;28;96830;-55
2021/12/10 00:06:31;;;;;;;5.90;2.65;;;;;;;18.53;38.75;99686.91;4922951;28;97113;-56
2021/12/10 00:09:04;;;;;;;6.13;2.38;;;;;;;18.51;38.89;99685.34;4927177;28;97406;-56
2021/12/10 00:11:42;;;;;;;5.93;2.43;;;;;;;18.47;38.75;99698.06;4919260;28;97792;-55
2021/12/10 00:14:08;;;;;;;5.35;2.45;;;;;;;18.46;38.81;99686.56;4919882;28;96919;-56
2021/12/10 00:16:36;;;;;;;4.43;2.00;;;;;;;18.44;38.77;99680.50;4933190;28;97076;-56
2021/12/10 00:19:25;;;;;;;5.70;2.60;;;;;;;18.38;38.87;99683.69;4921213;28;97931;-55
2021/12/10 00:21:52;;;;;;;4.35;2.28;;;;;;;18.38;38.91;99673.00;4920074;28;97682;-56
2021/12/10 00:24:21;;;;;;;5.55;2.20;;;;;;;18.36;39.02;99668.78;4922255;28;97022;-55
2021/12/10 00:26:47;;;;;;;6.78;2.67;;;;;;;18.33;39.02;99669.84;4924153;28;96931;-56
2021/12/10 00:29:15;;;;;;;4.65;2.50;;;;;;;18.30;39.04;99659.47;4929970;28;97006;-56
2021/12/10 00:31:49;;;;;;;5.28;2.35;;;;;;;18.28;38.93;99648.06;4926226;28;97627;-56
2021/12/10 00:34:33;;;;;;;5.55;2.38;;;;;;;18.25;39.11;99641.16;4923096;28;97091;-56
2021/12/10 00:37:09;;;;;;;5.88;2.55;;;;;;;18.23;39.04;99635.09;4927669;28;96959;-56
2021/12/10 00:39:44;;;;;;;7.47;2.50;;;;;;;18.20;39.03;99642.50;4918434;28;96994;-56
2021/12/10 00:42:17;;;;;;;6.10;2.85;;;;;;;18.18;39.05;99639.94;4933952;28;97707;-56
2021/12/10 00:44:45;;;;;;;5.35;2.67;;;;;;;18.15;39.09;99638.38;4934486;28;98655;-56
2021/12/10 00:47:12;;;;;;;4.68;2.22;;;;;;;18.11;39.17;99628.94;4930395;28;96870;-56
2021/12/10 00:49:38;;;;;;;7.43;2.70;;;;;;;18.11;39.21;99626.25;4922960;28;96960;-56
2021/12/10 00:52:09;;;;;;;6.10;2.75;;;;;;;18.08;39.11;99617.66;4928525;28;96945;-56
2021/12/10 00:54:35;;;;;;;5.78;2.42;;;;;;;18.06;39.26;99622.31;4932593;28;97676;-55
2021/12/10 00:57:04;;;;;;;6.47;2.60;;;;;;;18.04;39.29;99617.06;4933852;28;96948;-56
2021/12/10 00:59:29;;;;;;;5.55;2.70;;;;;;;18.02;39.27;99611.00;4928843;28;96988;-56
2021/12/10 01:01:55;;;;;;;5.90;2.50;;;;;;;18.00;39.36;99608.47;4931424;28;97053;-56
2021/12/10 01:04:32;;;;;;;6.60;2.55;;;;;;;17.99;39.25;99593.44;4927857;28;97853;-55
2021/12/10 01:07:03;;;;;;;6.82;2.92;;;;;;;17.99;39.36;99584.63;4925816;28;97477;-56
2021/12/10 01:09:33;;;;;;;4.63;2.40;;;;;;;17.97;39.25;99582.06;4927605;28;96988;-56
2021/12/10 01:12:12;;;;;;;5.50;2.70;;;;;;;17.93;39.44;99579.72;4923383;28;97154;-56
2021/12/10 01:15:03;;;;;;;5.90;2.83;;;;;;;17.92;39.37;99578.03;4926113;28;96832;-55
2021/12/10 01:23:48;;;;;;;6.97;2.58;;;;;;;17.88;39.40;99560.63;4923369;28;97042;-55
2021/12/10 01:26:37;;;;;;;4.47;2.53;;;;;;;17.85;39.46;99559.06;4916782;28;96887;-56
2021/12/10 01:29:03;;;;;;;6.70;2.80;;;;;;;17.79;39.55;99552.41;4914776;28;97990;-56
2021/12/10 01:31:29;;;;;;;5.20;2.65;;;;;;;17.78;39.52;99555.16;4925886;28;97436;-56
2021/12/10 01:33:55;;;;;;;4.20;2.10;;;;;;;17.79;39.70;99543.53;4923195;28;96892;-56
2021/12/10 01:36:22;;;;;;;4.03;2.10;;;;;;;17.78;39.53;99534.72;4926489;28;96990;-56
2021/12/10 01:38:51;;;;;;;4.18;2.35;;;;;;;17.75;39.60;99534.13;4924031;28;97815;-56
2021/12/10 01:41:19;;;;;;;4.60;2.47;;;;;;;17.74;39.54;99538.59;4918691;28;97576;-57
2021/12/10 01:43:51;;;;;;;5.50;2.53;;;;;;;17.73;39.53;99526.22;4920608;28;96933;-57
2021/12/10 01:46:26;;;;;;;5.47;2.20;;;;;;;17.71;39.68;99522.84;4926515;28;97035;-57
2021/12/10 01:49:03;;;;;;;6.03;2.38;;;;;;;17.70;39.58;99523.84;4933127;28;96820;-56
2021/12/10 01:51:36;;;;;;;5.72;2.30;;;;;;;17.67;39.61;99519.56;4913250;28;97740;-56
2021/12/10 01:54:10;;;;;;;4.65;1.98;;;;;;;17.66;39.29;99522.38;4931087;28;97724;-57
2021/12/10 01:56:39;;;;;;;4.45;2.30;;;;;;;17.66;39.13;99511.72;4923386;28;97149;-56
2021/12/10 01:59:10;;;;;;;5.93;2.30;;;;;;;17.63;39.61;99510.16;4922792;28;97097;-55
2021/12/10 02:01:43;;;;;;;4.20;2.42;;;;;;;17.60;39.60;99502.41;4924122;28;97712;-56
2021/12/10 02:04:14;;;;;;;4.40;2.20;;;;;;;17.62;39.67;99488.94;4940144;28;97585;-56
2021/12/10 02:06:40;;;;;;;4.72;2.10;;;;;;;17.60;39.73;99480.25;4925564;28;96971;-56
2021/12/10 02:09:09;;;;;;;3.88;1.80;;;;;;;17.57;39.84;99484.00;4913293;28;96979;-55
2021/12/10 02:11:36;;;;;;;3.40;2.08;;;;;;;17.55;39.83;99472.59;4917051;28;96828;-56
2021/12/10 02:14:02;;;;;;;3.78;1.98;;;;;;;17.50;39.71;99469.47;4919012;28;97919;-56
2021/12/10 02:16:28;;;;;;;3.58;2.20;;;;;;;17.49;39.96;99475.78;4922570;28;97483;-56
2021/12/10 02:18:55;;;;;;;4.60;2.10;;;;;;;17.45;39.87;99469.03;4918669;28;96942;-56
2021/12/10 02:21:25;;;;;;;4.70;2.10;;;;;;;17.40;40.07;99458.72;4921259;28;97114;-57
2021/12/10 02:23:57;;;;;;;4.63;2.03;;;;;;;17.41;40.12;99455.09;4922730;28;99160;-57
2021/12/10 02:26:31;;;;;;;3.85;2.00;;;;;;;17.42;39.91;99440.78;4929804;28;97723;-57
2021/12/10 02:28:58;;;;;;;;;;;;;;;17.40;40.02;99440.06;4913709;28;97093;-56
2021/12/10 02:31:24;;;;;;;3.60;2.38;;;;;;;17.41;40.02;99435.59;4924757;28;96942;-56
2021/12/10 02:33:50;;;;;;;4.93;2.00;;;;;;;17.37;40.15;99443.00;4930589;28;97008;-56
2021/12/10 02:36:16;;;;;;;3.63;1.95;;;;;;;17.33;40.19;99429.09;4924919;28;98206;-56
2021/12/10 02:38:47;;;;;;;4.25;1.90;;;;;;;17.34;40.18;99422.78;4920267;28;97560;-56
2021/12/10 02:41:17;;;;;;;2.97;1.90;;;;;;;17.33;40.13;99426.44;4901919;28;97041;-56
2021/12/10 02:43:44;;;;;;;4.60;1.88;;;;;;;17.29;40.19;99410.81;4921218;28;96926;-56
2021/12/10 02:46:10;;;;;;;4.95;1.80;;;;;;;17.26;40.17;99411.06;4918138;28;97945;-56
2021/12/10 02:48:36;;;;;;;3.17;1.88;;;;;;;17.26;40.06;99409.22;4925090;28;97559;-56
2021/12/10 02:51:04;;;;;;;3.80;1.98;;;;;;;17.26;40.16;99395.91;4925376;28;96975;-56
2021/12/10 02:53:34;;;;;;;4.15;1.80;;;;;;;17.23;40.10;99385.53;4917834;28;97040;-56
2021/12/10 02:56:03;;;;;;;4.05;1.92;;;;;;;17.22;40.21;99383.84;4918531;28;96756;-56
2021/12/10 02:58:29;;;;;;;3.83;1.90;;;;;;;17.21;40.28;99382.97;4919284;28;99853;-56
2021/12/10 03:01:17;;;;;;;3.40;1.70;;;;;;;17.20;40.10;99377.78;4911769;28;97699;-57
2021/12/10 03:03:43;;;;;;;4.13;2.00;;;;;;;17.18;40.12;99369.94;4922133;28;97075;-56
2021/12/10 03:06:12;;;;;;;5.10;2.05;;;;;;;17.15;40.27;99361.31;4927520;28;96878;-57
2021/12/10 03:08:42;;;;;;;3.22;1.60;;;;;;;17.15;40.19;99361.31;4917938;28;97817;-57
2021/12/10 03:11:11;;;;;;;3.25;1.70;;;;;;;17.15;40.19;99361.31;4928651;28;97878;-57
2021/12/10 03:13:43;;;;;;;3.00;1.35;;;;;;;17.13;40.28;99352.66;4932392;28;96944;-56
2021/12/10 03:16:10;;;;;;;5.32;1.80;;;;;;;17.11;40.33;99343.94;4947668;28;97061;-56
2021/12/10 03:18:37;;;;;;;3.40;1.70;;;;;;;17.07;40.42;99333.50;4918303;28;96770;-56
2021/12/10 03:21:10;;;;;;;3.25;1.70;;;;;;;17.07;40.40;99340.66;4923018;28;97656;-56
2021/12/10 03:23:45;;;;;;;4.00;1.70;;;;;;;17.04;40.34;99335.59;4922358;28;98662;-56
2021/12/10 03:26:15;;;;;;;2.95;1.70;;;;;;;17.00;40.35;99342.97;4922012;28;97000;-57
2021/12/10 03:28:42;;;;;;;4.15;1.90;;;;;;;16.98;40.52;99330.78;4937066;28;96861;-57
2021/12/10 03:31:10;;;;;;;3.88;1.67;;;;;;;16.97;40.45;99327.25;4933702;28;97641;-56
2021/12/10 03:33:39;;;;;;;4.63;1.65;;;;;;;16.99;40.33;99329.81;4919195;28;98605;-57
2021/12/10 03:36:07;;;;;;;2.78;1.42;;;;;;;16.96;40.44;99322.91;4926216;28;96902;-56
2021/12/10 03:38:34;;;;;;;4.03;1.83;;;;;;;16.94;40.48;99319.50;4922320;28;97086;-56
2021/12/10 03:41:01;;;;;;;3.92;1.60;;;;;;;16.92;40.39;99319.59;4920725;28;96916;-57
2021/12/10 03:43:28;;;;;;;2.28;1.35;;;;;;;16.92;40.52;99311.63;4921136;28;97058;-56
2021/12/10 03:45:57;;;;;;;2.53;1.33;;;;;;;16.88;40.38;99315.53;4921293;28;97479;-57
2021/12/10 03:48:32;;;;;;;2.83;1.60;;;;;;;16.85;40.50;99299.78;4921742;28;97070;-56
2021/12/10 03:51:02;;;;;;;2.55;1.30;;;;;;;16.86;40.52;99297.97;4920765;28;97011;-58
2021/12/10 03:53:28;;;;;;;2.33;1.23;;;;;;;16.86;40.34;99297.97;4922710;28;98724;-56
2021/12/10 03:56:06;;;;;;;2.45;1.48;;;;;;;16.88;40.38;99296.03;4919697;28;97568;-56
2021/12/10 03:58:32;;;;;;;4.53;1.88;;;;;;;16.86;40.35;99287.31;4919853;28;96931;-57
2021/12/10 04:00:59;;;;;;;2.15;1.48;;;;;;;16.81;40.48;99287.69;4938465;28;96940;-57
2021/12/10 04:03:29;;;;;;;2.17;1.25;;;;;;;16.77;40.48;99273.78;4920534;28;96916;-57
2021/12/10 04:05:56;;;;;;;3.33;1.60;;;;;;;16.78;40.35;99264.00;4927640;28;97684;-57
2021/12/10 04:08:24;;;;;;;2.50;1.67;;;;;;;16.75;40.50;99264.25;4926529;28;97517;-56
2021/12/10 04:10:52;;;;;;;2.40;1.30;;;;;;;16.76;40.32;99253.47;4931898;28;96885;-57
2021/12/10 04:13:18;;;;;;;3.92;1.50;;;;;;;16.80;40.24;99261.22;4922529;28;97024;-56
2021/12/10 04:15:44;;;;;;;3.10;1.48;;;;;;;16.79;40.19;99257.69;4920298;28;98041;-57
2021/12/10 04:18:11;;;;;;;4.35;1.83;;;;;;;16.75;40.32;99265.09;4919969;28;97436;-58
2021/12/10 04:20:39;;;;;;;3.40;1.50;;;;;;;16.71;40.44;99252.16;4929816;28;96990;-57
2021/12/10 04:23:10;;;;;;;3.58;1.50;;;;;;;16.70;40.32;99256.66;4919308;28;96995;-57
2021/12/10 04:25:36;;;;;;;3.25;1.48;;;;;;;16.70;40.38;99245.16;4920397;28;97184;-58
2021/12/10 04:28:09;;;;;;;2.20;1.30;;;;;;;16.68;40.38;99239.13;4921880;28;97205;-57
2021/12/10 04:30:40;;;;;;;3.30;1.40;;;;;;;16.67;40.44;99237.44;4925033;28;97615;-57
2021/12/10 04:33:15;;;;;;;2.88;1.25;;;;;;;16.67;40.45;99229.44;4935731;28;96999;-56
2021/12/10 04:35:44;;;;;;;3.45;1.30;;;;;;;16.66;40.37;99220.59;4923472;28;96984;-57
2021/12/10 04:38:10;;;;;;;3.00;1.20;;;;;;;16.65;40.40;99220.75;4925071;28;97783;-57
2021/12/10 04:40:36;;;;;;;2.40;1.38;;;;;;;16.65;40.47;99218.09;4918928;28;98841;-56
2021/12/10 04:43:03;;;;;;;2.25;1.13;;;;;;;16.63;40.43;99218.22;4936742;28;96974;-57
2021/12/10 04:45:29;;;;;;;2.50;1.30;;;;;;;16.59;40.46;99208.78;4918997;28;96799;-56
2021/12/10 04:47:54;;;;;;;2.70;1.27;;;;;;;16.58;40.54;99212.41;4919761;28;97113;-57
2021/12/10 04:50:26;;;;;;;3.20;1.40;;;;;;;16.55;40.64;99200.22;4920190;28;97755;-57
2021/12/10 04:52:52;;;;;;;2.25;1.20;;;;;;;16.55;40.52;99192.25;4919446;28;97718;-57
2021/12/10 04:55:19;;;;;;;3.13;1.20;;;;;;;16.54;40.54;99179.03;4934830;28;96906;-57
2021/12/10 04:57:45;;;;;;;2.88;1.30;;;;;;;16.53;40.45;99183.53;4930782;28;97850;-56
2021/12/10 05:00:17;;;;;;;1.45;1.05;;;;;;;16.51;40.62;99181.97;4918984;28;97600;-57
2021/12/10 05:02:44;;;;;;;3.33;1.30;;;;;;;16.51;40.39;99176.66;4929514;28;97474;-57
2021/12/10 05:05:11;;;;;;;2.25;1.13;;;;;;;16.48;40.50;99175.09;4922990;28;96915;-57
2021/12/10 05:07:38;;;;;;;4.40;1.35;;;;;;;16.46;40.63;99164.56;4927621;28;96901;-56
2021/12/10 05:10:08;;;;;;;2.47;1.20;;;;;;;16.46;40.65;99159.25;4931343;28;97546;-57
2021/12/10 05:12:35;;;;;;;2.30;1.25;;;;;;;16.40;40.63;99158.91;4921115;28;97967;-57
2021/12/10 05:15:06;;;;;;;2.33;1.10;;;;;;;16.49;40.32;99152.81;4930542;28;97357;-57
2021/12/10 05:17:34;;;;;;;3.95;1.27;;;;;;;16.56;40.23;99143.38;4925635;28;97135;-58
2021/12/10 05:20:11;;;;;;;3.35;1.10;;;;;;;16.62;40.18;99136.72;4918873;28;97213;-57
2021/12/10 05:22:39;;;;;;;2.13;1.00;;;;;;;16.69;39.97;99137.03;4927877;28;97794;-57
2021/12/10 05:25:06;;;;;;;2.65;1.20;;;;;;;16.75;40.10;99132.03;4924994;28;98957;-57
2021/12/10 05:27:33;;;;;;;3.47;1.40;;;;;;;16.83;39.84;99128.75;4922670;28;96892;-56
2021/12/10 05:29:59;;;;;;;2.15;1.30;;;;;;;16.91;39.85;99126.28;4935039;28;96898;-56
2021/12/10 05:32:25;;;;;;;1.95;0.95;;;;;;;16.99;39.91;99123.03;4927821;28;96951;-57
2021/12/10 05:34:50;;;;;;;2.42;1.00;;;;;;;17.06;39.92;99120.69;4922195;28;97704;-58
2021/12/10 05:37:16;;;;;;;2.15;1.02;;;;;;;17.13;39.79;99113.03;4923604;28;98689;-57
2021/12/10 05:39:41;;;;;;;2.03;0.93;;;;;;;17.18;39.78;99117.00;4936495;28;96815;-58
2021/12/10 05:42:07;;;;;;;1.73;1.00;;;;;;;17.22;39.80;99115.72;4931368;28;96762;-57
2021/12/10 05:44:33;;;;;;;2.72;1.00;;;;;;;17.26;39.75;99113.66;4918492;28;98950;-58
2021/12/10 05:46:59;;;;;;;3.70;1.23;;;;;;;17.29;39.72;99108.06;4918394;28;97825;-58
2021/12/10 05:49:27;;;;;;;2.28;1.00;;;;;;;17.31;39.57;99097.28;4919640;28;97027;-57
2021/12/10 05:51:52;;;;;;;2.10;0.93;;;;;;;17.33;39.30;99101.50;4923949;28;96890;-57
2021/12/10 05:54:18;;;;;;;1.77;0.95;;;;;;;17.34;39.45;99095.22;4919447;28;96868;-57
2021/12/10 05:56:43;;;;;;;2.95;1.00;;;;;;;17.35;39.54;99091.53;4919837;28;97968;-57
2021/12/10 05:59:09;;;;;;;2.22;1.20;;;;;;;17.38;39.22;99096.63;4920710;28;97417;-56
2021/12/10 06:01:36;;;;;;;1.83;1.00;;;;;;;17.39;39.15;99092.97;4922941;28;97159;-57
2021/12/10 06:04:03;;;;;;;3.42;1.30;;;;;;;17.39;39.27;99092.97;4923089;28;96830;-56
2021/12/10 06:06:33;;;;;;;2.63;1.00;;;;;;;17.42;39.14;99085.69;4922923;28;97905;-56
2021/12/10 06:09:04;;;;;;;2.50;1.00;;;;;;;17.43;39.23;99084.72;4915419;28;109239;-56
2021/12/10 06:11:30;;;;;;;2.92;1.08;;;;;;;17.45;39.61;99082.78;4918267;28;97091;-57
2021/12/10 06:13:56;;;;;;;5.93;1.10;;;;;;;17.50;39.64;99080.53;4932568;28;106308;-57
2021/12/10 06:16:23;;;;;;;5.88;1.20;;;;;;;17.52;39.78;99074.09;4921626;28;97055;-57
2021/12/10 06:18:50;;;;;;;4.88;1.17;;;;;;;17.55;40.03;99072.97;4917787;28;97933;-56
2021/12/10 06:21:16;;;;;;;5.90;1.38;;;;;;;17.60;40.11;99073.44;4928027;28;97159;-57
2021/12/10 06:23:42;;;;;;;3.30;1.10;;;;;;;17.63;40.92;99070.50;4929941;28;96948;-56
2021/12/10 06:26:08;;;;;;;5.18;1.48;;;;;;;17.66;40.99;99066.72;4918716;28;97013;-57
2021/12/10 06:28:35;;;;;;;7.57;1.48;;;;;;;17.68;41.69;99065.59;4924782;28;98643;-57
2021/12/10 06:31:03;;;;;;;7.03;1.75;;;;;;;17.73;41.59;99061.69;4924692;28;98869;-56
2021/12/10 06:33:29;;;;;;;6.43;1.38;;;;;;;17.75;41.16;99049.91;4922910;28;97072;-56
2021/12/10 06:36:01;;;;;;;10.93;1.60;;;;;;;17.76;40.86;99066.72;4915952;28;96999;-56
2021/12/10 06:38:27;;;;;;;6.07;1.35;;;;;;;17.77;41.17;99047.97;4915397;28;96941;-56
2021/12/10 06:40:54;;;;;;;9.25;1.15;;;;;;;17.78;41.11;99059.44;4917048;28;97986;-56
2021/12/10 06:43:21;;;;;;;10.75;1.48;;;;;;;17.79;41.22;99062.00;4919290;28;97552;-56
2021/12/10 06:45:51;;;;;;;6.90;1.48;;;;;;;17.81;40.90;99054.69;4917131;28;97133;-56
2021/12/10 06:48:22;;;;;;;10.50;1.50;;;;;;;17.87;41.27;99061.28;4912064;28;96895;-56
2021/12/10 06:50:54;;;;;;;10.38;1.38;;;;;;;17.91;41.18;99056.53;4916708;28;97401;-56
2021/12/10 06:53:23;;;;;;;5.80;1.23;;;;;;;17.92;41.25;99047.56;4914992;28;97400;-56
2021/12/10 06:55:50;;;;;;;4.95;1.23;;;;;;;17.93;41.13;99051.91;4916186;28;97006;-56
2021/12/10 06:58:17;;;;;;;7.40;1.40;;;;;;;17.95;41.08;99050.81;4916549;28;96906;-56
2021/12/10 07:01:23;;;;;;;8.73;1.40;;;;;;;17.99;41.24;99054.06;4931166;28;97047;-56
2021/12/10 07:03:54;;;;;;;7.03;1.42;;;;;;;18.02;41.58;99055.63;4928226;28;97677;-57
2021/12/10 07:06:21;;;;;;;5.53;1.40;;;;;;;18.07;41.52;99048.88;4938795;28;97639;-56
2021/12/10 07:08:48;;;;;;;8.68;1.42;;;;;;;18.07;41.50;99053.38;4923734;28;96911;-57
2021/12/10 07:11:18;;;;;;;5.00;1.45;;;;;;;18.06;41.36;99044.53;4933312;28;96946;-56
2021/12/10 07:13:50;;;;;;;4.95;1.20;;;;;;;18.07;41.35;99045.38;4920175;28;97868;-56
2021/12/10 07:16:20;;;;;;;6.95;1.30;;;;;;;18.05;41.45;99047.34;4937059;28;97655;-56
2021/12/10 07:18:47;;;;;;;6.70;1.50;;;;;;;18.03;41.54;99042.13;4936889;28;96885;-56
2021/12/10 07:21:15;;;;;;;6.28;1.30;;;;;;;18.03;41.47;99049.31;4930142;28;96779;-56
2021/12/10 07:23:42;;;;;;;6.10;1.55;;;;;;;18.03;41.15;99054.63;4917716;28;97492;-56
2021/12/10 07:26:10;;;;;;;7.13;1.25;;;;;;;18.03;41.11;99046.63;4918229;28;98040;-56
2021/12/10 07:28:36;;;;;;;4.38;1.38;;;;;;;18.02;41.00;99051.13;4920195;28;97464;-57
2021/12/10 07:31:03;;;;;;;3.47;1.40;;;;;;;18.04;40.95;99037.66;4917318;28;96907;-56
2021/12/10 07:33:29;;;;;;;8.40;1.30;;;;;;;18.01;40.88;99041.44;4936322;28;96858;-56
2021/12/10 07:35:55;;;;;;;4.47;1.38;;;;;;;18.00;40.95;99045.94;4926258;28;97888;-56
2021/12/10 07:38:22;;;;;;;4.80;1.00;;;;;;;17.99;40.89;99046.09;4915646;28;97502;-56
2021/12/10 07:40:49;;;;;;;7.60;1.30;;;;;;;17.98;40.87;99049.72;4917267;28;96940;-57
2021/12/10 07:43:14;;;;;;;3.65;0.98;;;;;;;17.97;40.87;99046.19;4917511;28;96926;-56
2021/12/10 07:45:46;;;;;;;5.32;1.30;;;;;;;17.96;40.91;99041.84;4917092;28;98110;-56
2021/12/10 07:48:16;;;;;;;4.20;1.20;;;;;;;17.96;40.83;99044.50;4917164;28;97869;-56
2021/12/10 07:50:53;;;;;;;4.82;1.30;;;;;;;17.97;40.77;99040.03;4919292;28;96904;-56
2021/12/10 07:53:24;;;;;;;5.50;1.50;;;;;;;17.98;40.72;99041.72;4917246;28;97214;-56
2021/12/10 07:55:50;;;;;;;4.07;1.20;;;;;;;17.98;40.61;99050.56;4918073;28;96975;-55
2021/12/10 07:58:16;;;;;;;8.23;1.58;;;;;;;18.01;40.56;99052.09;4917554;28;97788;-56
2021/12/10 08:00:45;;;;;;;4.63;1.20;;;;;;;18.02;40.36;99047.63;4916759;28;98026;-56
2021/12/10 08:03:12;;;;;;;2.78;1.20;;;;;;;18.04;40.38;99051.81;4917276;28;97003;-56
2021/12/10 08:05:39;;;;;;;2.72;1.20;;;;;;;18.06;40.29;99052.53;4916793;28;97008;-55
2021/12/10 08:08:06;;;;;;;4.47;1.15;;;;;;;18.06;40.37;99057.88;4918086;28;97003;-56
2021/12/10 08:10:33;;;;;;;3.78;1.10;;;;;;;18.06;40.32;99052.53;4923691;28;97753;-55
2021/12/10 08:12:59;;;;;;;3.67;0.90;;;;;;;18.06;40.34;99043.72;4920215;28;96813;-56
2021/12/10 08:15:26;;;;;;;3.63;1.20;;;;;;;18.05;40.29;99045.50;4919592;28;97333;-56
2021/12/10 08:17:51;;;;;;;3.47;0.88;;;;;;;18.05;40.26;99050.03;4921111;28;96841;-56
2021/12/10 08:20:22;;;;;;;3.33;0.95;;;;;;;18.05;40.32;99048.19;4921570;28;97814;-55
2021/12/10 08:22:50;;;;;;;6.82;1.15;;;;;;;18.05;40.20;99050.03;4901424;28;97657;-56
2021/12/10 08:25:20;;;;;;;3.63;0.95;;;;;;;18.07;40.09;99048.88;4900788;28;96891;-55
2021/12/10 08:27:47;;;;;;;3.28;0.95;;;;;;;18.09;39.99;99048.75;4900210;28;97003;-54
2021/12/10 08:30:18;;;;;;;3.90;1.10;;;;;;;18.10;39.94;99050.44;4918392;28;96980;-55
2021/12/10 08:32:45;;;;;;;7.00;1.35;;;;;;;18.12;39.90;99051.97;4923265;28;97890;-55
2021/12/10 08:35:15;;;;;;;3.50;1.10;;;;;;;18.13;39.97;99050.16;4920307;28;97625;-55
2021/12/10 08:37:41;;;;;;;3.13;1.15;;;;;;;18.13;39.75;99053.66;4920272;28;96843;-55
2021/12/10 08:40:12;;;;;;;3.00;0.90;;;;;;;18.12;39.66;99049.31;4920076;28;97072;-55
2021/12/10 08:42:38;;;;;;;2.53;1.17;;;;;;;18.12;39.87;99057.31;4919853;28;97828;-55
2021/12/10 08:45:05;;;;;;;3.55;1.00;;;;;;;18.10;39.85;99053.97;4920136;28;97680;-55
2021/12/10 08:47:31;;;;;;;3.15;0.93;;;;;;;18.10;39.72;99067.28;4920227;28;96864;-55
2021/12/10 08:49:57;;;;;;;3.08;1.20;;;;;;;18.10;39.71;99053.97;4920541;28;96958;-55
2021/12/10 08:52:23;;;;;;;3.55;1.10;;;;;;;18.09;39.71;99051.41;4918880;28;112704;-55
2021/12/10 08:54:49;;;;;;;3.78;1.20;;;;;;;18.11;39.70;99055.63;4923335;28;99426;-55
2021/12/10 08:57:15;;;;;;;3.10;1.13;;;;;;;18.15;39.64;99049.03;4918565;28;96976;-55
2021/12/10 08:59:42;;;;;;;2.67;0.82;;;;;;;18.15;39.60;99056.22;4920180;28;96955;-55
2021/12/10 09:02:16;;;;;;;3.95;0.95;;;;;;;18.16;39.75;99060.56;4915010;28;97015;-55
2021/12/10 09:04:42;;;;;;;3.80;1.50;;;;;;;18.19;39.62;99056.75;4920816;28;97916;-55
2021/12/10 09:07:15;;;;;;;2.72;1.00;;;;;;;18.20;39.78;99059.28;4932573;28;97585;-56
2021/12/10 09:09:46;;;;;;;3.47;0.82;;;;;;;18.21;39.91;99062.81;4908398;28;97134;-55
2021/12/10 09:12:21;;;;;;;5.57;1.00;;;;;;;18.24;39.76;99060.69;4919391;28;97056;-55
2021/12/10 09:14:50;;;;;;;1.45;0.75;;;;;;;18.25;40.00;99061.53;4919559;28;96973;-55
2021/12/10 09:17:25;;;;;;;3.70;1.20;;;;;;;18.25;39.63;99066.88;4923065;28;97840;-55
2021/12/10 09:19:54;;;;;;;2.95;1.20;;;;;;;18.26;39.80;99066.72;4938911;28;96920;-56
2021/12/10 09:22:20;;;;;;;3.70;0.90;;;;;;;18.27;39.65;99076.41;4938649;28;96878;-55
2021/12/10 09:24:47;;;;;;;1.77;1.00;;;;;;;18.30;39.75;99080.63;4919513;28;96799;-55
2021/12/10 09:27:14;;;;;;;2.55;1.20;;;;;;;18.32;39.95;99089.31;4926636;28;97839;-55
2021/12/10 09:29:45;;;;;;;2.42;1.10;;;;;;;18.35;39.89;99085.56;4938774;28;97684;-55
2021/12/10 09:32:17;;;;;;;3.10;0.98;;;;;;;18.38;39.95;99082.59;4938448;28;96881;-55
2021/12/10 09:34:44;;;;;;;4.28;1.27;;;;;;;18.39;40.02;99078.94;4953853;28;96891;-56
2021/12/10 09:37:11;;;;;;;2.92;1.05;;;;;;;18.40;40.02;99075.28;4932834;28;96841;-56
2021/12/10 09:39:37;;;;;;;3.53;1.10;;;;;;;18.40;40.03;99080.63;4919004;28;98705;-56
2021/12/10 09:42:05;;;;;;;3.33;1.00;;;;;;;18.39;39.92;99078.94;4918665;28;96977;-56
2021/12/10 09:44:31;;;;;;;3.47;1.20;;;;;;;18.39;39.92;99081.59;4919622;28;96849;-56
2021/12/10 09:46:58;;;;;;;4.03;1.20;;;;;;;18.39;39.92;99078.94;4923148;28;96923;-56
2021/12/10 09:49:25;;;;;;;2.45;0.98;;;;;;;18.39;39.99;99078.94;4931124;28;97593;-56
2021/12/10 09:51:56;;;;;;;2.40;0.98;;;;;;;18.40;39.84;99080.63;4918892;28;97679;-56
2021/12/10 09:54:25;;;;;;;4.03;1.08;;;;;;;18.40;39.96;99081.50;4919469;28;97038;-55
2021/12/10 09:57:05;;;;;;;4.82;1.20;;;;;;;18.42;39.75;99076.84;4919052;28;96856;-56
2021/12/10 09:59:34;;;;;;;2.65;0.80;;;;;;;18.44;39.69;99079.38;4922669;28;96897;-56
2021/12/10 10:02:01;;;;;;;3.30;1.00;;;;;;;18.46;39.76;99085.44;4919042;28;97582;-55
2021/12/10 10:04:33;;;;;;;2.55;0.90;;;;;;;18.47;39.74;99074.59;4917183;28;97032;-56
2021/12/10 10:07:10;;;;;;;2.00;0.90;;;;;;;18.51;39.63;99071.66;4918027;28;96860;-56
2021/12/10 10:09:37;;;;;;;1.88;0.82;;;;;;;18.52;39.43;99078.69;4919338;28;96865;-56
2021/12/10 10:12:16;;;;;;;2.80;1.10;;;;;;;18.51;39.55;99083.16;4919198;28;97794;-56
2021/12/10 10:14:42;;;;;;;6.07;1.08;;;;;;;18.51;39.37;99085.84;4918927;28;97427;-56
2021/12/10 10:17:10;;;;;;;2.65;1.00;;;;;;;18.51;39.16;99082.34;4918196;28;96969;-56
2021/12/10 10:19:39;;;;;;;2.45;1.05;;;;;;;18.51;39.28;99083.16;4918772;28;96845;-55
2021/12/10 10:22:10;;;;;;;3.17;1.00;;;;;;;18.51;39.17;99077.81;4921871;28;96944;-56
2021/12/10 10:24:37;;;;;;;2.92;1.10;;;;;;;18.52;39.15;99068.84;4918536;28;97361;-55
2021/12/10 10:27:13;;;;;;;3.08;1.05;;;;;;;18.55;39.23;99078.38;4918760;28;96908;-56
2021/12/10 10:29:49;;;;;;;3.50;1.05;;;;;;;18.56;39.06;99070.25;4919241;28;96827;-56
2021/12/10 10:32:21;;;;;;;2.97;0.90;;;;;;;18.58;39.05;99070.94;4917856;28;96829;-56
2021/12/10 10:34:54;;;;;;;2.53;0.95;;;;;;;18.59;38.93;99067.28;4918650;28;97951;-56
2021/12/10 10:37:22;;;;;;;1.95;1.00;;;;;;;18.61;38.86;99061.81;4918989;28;98028;-56
2021/12/10 10:39:48;;;;;;;2.25;1.08;;;;;;;18.61;38.85;99070.66;4917672;28;97016;-56
2021/12/10 10:42:21;;;;;;;3.40;1.05;;;;;;;18.62;38.80;99074.16;4905249;28;96877;-56
2021/12/10 10:44:48;;;;;;;1.23;0.70;;;;;;;18.62;38.87;99064.34;4921558;28;96811;-56
2021/12/10 10:47:14;;;;;;;5.82;1.20;;;;;;;18.62;38.83;99061.69;4918259;28;97717;-56
2021/12/10 10:49:52;;;;;;;3.90;1.25;;;;;;;18.63;38.74;99059.84;4918337;28;96826;-56
2021/12/10 10:52:31;;;;;;;2.78;0.93;;;;;;;18.65;38.68;99060.53;4917669;28;97027;-56
2021/12/10 10:55:27;;;;;;;2.90;1.00;;;;;;;18.67;38.71;99055.09;4918007;28;96814;-56
2021/12/10 10:58:00;;;;;;;1.63;0.90;;;;;;;18.69;38.62;99063.75;4918213;28;97854;-56
2021/12/10 11:01:02;;;;;;;2.22;0.98;;;;;;;18.71;38.65;99076.00;4917409;28;97486;-56
2021/12/10 11:03:40;;;;;;;2.42;1.13;;;;;;;18.72;38.42;99074.16;4917850;28;96949;-56
2021/12/10 11:06:13;;;;;;;2.10;1.10;;;;;;;18.71;38.48;99068.00;4917946;28;96943;-56
2021/12/10 11:08:44;;;;;;;3.35;0.90;;;;;;;18.71;38.47;99060.00;4921384;28;96991;-55
2021/12/10 11:11:16;;;;;;;2.40;0.93;;;;;;;18.72;38.58;99063.50;4918488;28;97840;-56
2021/12/10 11:13:47;;;;;;;1.77;0.90;;;;;;;18.72;38.46;99060.81;4917398;28;96845;-56
2021/12/10 11:16:19;;;;;;;4.03;0.90;;;;;;;18.70;38.51;99055.63;4918451;28;96931;-56
2021/12/10 11:19:09;;;;;;;1.90;0.80;;;;;;;18.70;38.52;99054.78;4918450;28;96800;-56
2021/12/10 11:21:53;;;;;;;2.97;1.27;;;;;;;18.71;38.36;99070.66;4918102;28;97086;-56
2021/12/10 11:24:30;;;;;;;1.77;0.80;;;;;;;18.72;38.38;99064.31;4918272;28;97839;-56
2021/12/10 11:27:05;;;;;;;3.20;1.10;;;;;;;18.73;38.52;99068.69;4918098;28;96868;-56
2021/12/10 11:29:50;;;;;;;1.95;0.70;;;;;;;18.75;38.45;99068.56;4921206;28;96883;-56
2021/12/10 11:32:25;;;;;;;1.98;0.80;;;;;;;18.77;38.49;99077.25;4922130;28;96950;-56
2021/12/10 11:35:25;;;;;;;3.03;0.90;;;;;;;18.77;38.60;99071.94;4917343;28;97849;-56
2021/12/10 11:38:04;;;;;;;2.50;0.93;;;;;;;18.75;38.60;99074.72;4917715;28;96941;-56
2021/12/10 11:41:00;;;;;;;2.38;1.00;;;;;;;18.82;38.52;99069.66;4918679;28;97016;-56
2021/12/10 11:46:31;;;;;;;2.80;1.10;;;;;;;19.09;38.33;99076.09;4921551;28;97884;-56
2021/12/10 11:49:38;;;;;;;2.30;0.93;;;;;;;19.18;37.68;99077.06;4920747;28;97844;-56
2021/12/10 11:52:09;;;;;;;3.95;1.10;;;;;;;19.20;37.87;99078.59;4920099;28;97051;-56
2021/12/10 11:55:02;;;;;;;3.78;1.15;;;;;;;19.21;37.75;99080.28;4920705;28;96875;-56
2021/12/10 11:57:40;;;;;;;2.85;1.38;;;;;;;19.28;37.57;99072.53;4923396;28;96839;-56